| time (UTC) | temp C | wind direction | speed KPH | gust KPH | rain 1hr cm | rain 24hr cm | rain mn cm | humidity % | barometer mb |
| 20260510101830 | 12 | 225 | 20.9 | 33.8 | 0.00 | 0.00 | 0.00 | 84 | 1017.0 |
| 20260510100318 | 12 | 237 | 20.9 | 33.8 | 0.00 | 0.00 | 0.00 | 85 | 1016.9 |
| 20260510094828 | 12 | 221 | 19.3 | 35.4 | 0.00 | 0.00 | 0.00 | 84 | 1016.6 |
| 20260510093336 | 12 | 258 | 17.7 | 29.0 | 0.00 | 0.00 | 0.00 | 83 | 1016.5 |
| 20260510091822 | 12 | 240 | 22.5 | 40.2 | 0.00 | 0.00 | 0.00 | 83 | 1016.6 |
| 20260510090351 | 12 | 230 | 19.3 | 35.4 | 0.00 | 0.00 | 0.00 | 82 | 1016.6 |
| 20260510084836 | 13 | 234 | 17.7 | 29.0 | 0.00 | 0.00 | 0.00 | 80 | 1016.7 |
| 20260510083320 | 13 | 231 | 12.9 | 22.5 | 0.00 | 0.00 | 0.00 | 78 | 1016.6 |
| 20260510081828 | 14 | 224 | 11.3 | 22.5 | 0.00 | 0.00 | 0.00 | 76 | 1016.4 |
| 20260510080355 | 14 | 242 | 11.3 | 19.3 | 0.00 | 0.00 | 0.00 | 75 | 1016.7 |
| 20260510074821 | 14 | 229 | 11.3 | 22.5 | 0.00 | 0.00 | 0.00 | 77 | 1016.6 |
| 20260510073328 | 14 | 231 | 14.5 | 22.5 | 0.00 | 0.00 | 0.00 | 76 | 1016.6 |
| 20260510071838 | 14 | 248 | 16.1 | 27.4 | 0.00 | 0.00 | 0.00 | 77 | 1016.6 |
| 20260510070342 | 14 | 251 | 14.5 | 24.1 | 0.00 | 0.00 | 0.00 | 77 | 1016.5 |
| 20260510064831 | 15 | 245 | 17.7 | 27.4 | 0.00 | 0.00 | 0.00 | 75 | 1016.5 |
| 20260510063319 | 15 | 235 | 14.5 | 24.1 | 0.00 | 0.00 | 0.00 | 74 | 1016.4 |
| 20260510061827 | 16 | 237 | 12.9 | 24.1 | 0.00 | 0.00 | 0.00 | 71 | 1016.4 |
| 20260510060336 | 16 | 230 | 9.7 | 20.9 | 0.00 | 0.00 | 0.00 | 70 | 1016.3 |
| 20260510054826 | 16 | 240 | 6.4 | 17.7 | 0.00 | 0.00 | 0.00 | 70 | 1016.4 |
| 20260510053334 | 17 | 242 | 9.7 | 17.7 | 0.00 | 0.00 | 0.00 | 70 | 1016.3 |
| 20260510051822 | 17 | 233 | 12.9 | 27.4 | 0.00 | 0.00 | 0.00 | 69 | 1016.1 |
| 20260510050327 | 17 | 241 | 11.3 | 27.4 | 0.00 | 0.00 | 0.00 | 67 | 1015.9 |
| 20260510044835 | 17 | 243 | 12.9 | 29.0 | 0.00 | 0.00 | 0.00 | 66 | 1015.9 |
| 20260510043323 | 17 | 230 | 16.1 | 22.5 | 0.00 | 0.00 | 0.00 | 65 | 1015.9 |
| 20260510041833 | 18 | 226 | 12.9 | 24.1 | 0.00 | 0.00 | 0.00 | 65 | 1015.7 |
| 20260510040321 | 18 | 238 | 16.1 | 22.5 | 0.00 | 0.00 | 0.00 | 65 | 1015.6 |
| 20260510034831 | 18 | 224 | 12.9 | 20.9 | 0.00 | 0.00 | 0.00 | 63 | 1015.4 |
| 20260510033339 | 19 | 231 | 12.9 | 17.7 | 0.00 | 0.00 | 0.00 | 62 | 1015.3 |
| 20260510031849 | 20 | 230 | 11.3 | 19.3 | 0.00 | 0.00 | 0.00 | 60 | 1015.3 |
| 20260510030332 | 21 | 240 | 11.3 | 17.7 | 0.00 | 0.00 | 0.00 | 55 | 1015.3 |
| 20260510024824 | 22 | 233 | 6.4 | 9.7 | 0.00 | 0.00 | 0.00 | 47 | 1015.2 |
| 20260510023330 | 22 | 306 | 3.2 | 4.8 | 0.00 | 0.00 | 0.00 | 48 | 1015.2 |
| 20260510021838 | 22 | 332 | 0.0 | 0.0 | 0.00 | 0.00 | 0.00 | 46 | 1015.3 |
| 20260510020325 | 23 | 332 | 0.0 | 4.8 | 0.00 | 0.00 | 0.00 | 46 | 1015.2 |
| 20260510014835 | 23 | 319 | 3.2 | 6.4 | 0.00 | 0.00 | 0.00 | 45 | 1015.3 |
| 20260510013346 | 23 | 330 | 3.2 | 6.4 | 0.00 | 0.00 | 0.00 | 42 | 1015.3 |
| 20260510011835 | 23 | 329 | 1.6 | 9.7 | 0.00 | 0.00 | 0.00 | 42 | 1015.6 |
| 20260510010340 | 23 | 6 | 4.8 | 9.7 | 0.00 | 0.00 | 0.00 | 43 | 1015.6 |
| 20260510004829 | 24 | 321 | 4.8 | 8.0 | 0.00 | 0.00 | 0.00 | 45 | 1015.7 |
| 20260510003338 | 24 | 346 | 6.4 | 11.3 | 0.00 | 0.00 | 0.00 | 41 | 1015.9 |
| 20260510001827 | 24 | 320 | 4.8 | 8.0 | 0.00 | 0.00 | 0.00 | 36 | 1016.0 |
| 20260510000318 | 25 | 13 | 3.2 | 11.3 | 0.00 | 0.00 | 0.00 | 35 | 1016.2 |
| 20260509234822 | 25 | 303 | 3.2 | 9.7 | 0.00 | 0.00 | 0.00 | 37 | 1016.3 |
| 20260509233330 | 25 | 338 | 8.0 | 16.1 | 0.00 | 0.00 | 0.00 | 39 | 1016.4 |
| 20260509231834 | 25 | 333 | 3.2 | 11.3 | 0.00 | 0.00 | 0.00 | 41 | 1016.5 |
| 20260509230322 | 25 | 323 | 8.0 | 12.9 | 0.00 | 0.00 | 0.00 | 43 | 1016.7 |
| 20260509224827 | 24 | 322 | 3.2 | 14.5 | 0.00 | 0.00 | 0.00 | 49 | 1016.9 |
| 20260509223336 | 25 | 350 | 12.9 | 19.3 | 0.00 | 0.00 | 0.00 | 49 | 1016.9 |
| 20260509221822 | 25 | 345 | 1.6 | 16.1 | 0.00 | 0.00 | 0.00 | 52 | 1017.2 |
| 20260509220328 | 24 | 353 | 6.4 | 14.5 | 0.00 | 0.00 | 0.00 | 56 | 1017.5 |
| 20260509214830 | 23 | 317 | 6.4 | 16.1 | 0.00 | 0.00 | 0.00 | 56 | 1017.7 |
| 20260509213334 | 23 | 40 | 3.2 | 17.7 | 0.00 | 0.00 | 0.00 | 55 | 1017.9 |
| 20260509211838 | 23 | 360 | 6.4 | 14.5 | 0.00 | 0.00 | 0.00 | 58 | 1018.1 |
| 20260509210347 | 23 | 335 | 8.0 | 12.9 | 0.00 | 0.00 | 0.00 | 58 | 1018.1 |
| 20260509204832 | 23 | 327 | 3.2 | 11.3 | 0.00 | 0.00 | 0.00 | 58 | 1018.3 |
| 20260509203332 | 22 | 342 | 9.7 | 16.1 | 0.00 | 0.00 | 0.00 | 60 | 1018.4 |
| 20260509201818 | 22 | 342 | 3.2 | 9.7 | 0.00 | 0.00 | 0.00 | 59 | 1018.7 |
| 20260509200325 | 21 | 314 | 3.2 | 12.9 | 0.00 | 0.00 | 0.00 | 60 | 1018.8 |
| 20260509194850 | 21 | 321 | 4.8 | 12.9 | 0.00 | 0.00 | 0.00 | 61 | 1019.1 |
| 20260509193333 | 20 | 323 | 9.7 | 16.1 | 0.00 | 0.00 | 0.00 | 62 | 1019.3 |
| 20260509191821 | 20 | 330 | 6.4 | 12.9 | 0.00 | 0.00 | 0.00 | 65 | 1019.4 |
| 20260509190347 | 20 | 320 | 8.0 | 17.7 | 0.00 | 0.00 | 0.00 | 67 | 1019.6 |
| 20260509184832 | 18 | 302 | 3.2 | 14.5 | 0.00 | 0.00 | 0.00 | 72 | 1019.6 |
| 20260509183338 | 18 | 300 | 6.4 | 14.5 | 0.00 | 0.00 | 0.00 | 71 | 1019.8 |
| 20260509181826 | 17 | 310 | 6.4 | 9.7 | 0.00 | 0.00 | 0.00 | 74 | 1019.9 |
| 20260509180350 | 17 | 342 | 8.0 | 16.1 | 0.00 | 0.00 | 0.00 | 74 | 1020.0 |
| 20260509174833 | 16 | 325 | 6.4 | 11.3 | 0.00 | 0.00 | 0.00 | 77 | 1020.1 |
| 20260509173338 | 15 | 308 | 8.0 | 16.1 | 0.00 | 0.00 | 0.00 | 79 | 1020.1 |
| 20260509171820 | 15 | 327 | 8.0 | 16.1 | 0.00 | 0.00 | 0.00 | 79 | 1020.2 |
| 20260509170344 | 14 | 348 | 9.7 | 17.7 | 0.00 | 0.00 | 0.00 | 81 | 1020.3 |
| 20260509164825 | 13 | 329 | 9.7 | 16.1 | 0.00 | 0.00 | 0.00 | 82 | 1020.5 |
| 20260509163336 | 13 | 323 | 9.7 | 17.7 | 0.00 | 0.00 | 0.00 | 84 | 1020.6 |
| 20260509161824 | 13 | 336 | 4.8 | 12.9 | 0.00 | 0.00 | 0.00 | 85 | 1020.7 |
| 20260509160328 | 12 | 321 | 3.2 | 14.5 | 0.00 | 0.00 | 0.00 | 85 | 1021.0 |
| 20260509154837 | 12 | 341 | 9.7 | 14.5 | 0.00 | 0.00 | 0.00 | 87 | 1021.0 |
| 20260509153325 | 12 | 323 | 4.8 | 14.5 | 0.00 | 0.00 | 0.00 | 87 | 1021.1 |
| 20260509151834 | 11 | 326 | 8.0 | 12.9 | 0.00 | 0.00 | 0.00 | 89 | 1021.1 |
| 20260509150338 | 11 | 320 | 6.4 | 11.3 | 0.00 | 0.00 | 0.00 | 90 | 1021.5 |
| 20260509144827 | 11 | 333 | 6.4 | 12.9 | 0.00 | 0.00 | 0.00 | 91 | 1021.5 |
| 20260509143335 | 10 | 344 | 8.0 | 14.5 | 0.00 | 0.00 | 0.00 | 91 | 1021.5 |
| 20260509141823 | 10 | 340 | 6.4 | 11.3 | 0.00 | 0.00 | 0.00 | 93 | 1021.4 |
| 20260509140328 | 10 | 327 | 4.8 | 8.0 | 0.00 | 0.00 | 0.00 | 94 | 1021.3 |
| 20260509134835 | 9 | 327 | 3.2 | 8.0 | 0.00 | 0.00 | 0.00 | 94 | 1021.3 |
| 20260509133340 | 9 | 324 | 3.2 | 9.7 | 0.00 | 0.00 | 0.00 | 94 | 1021.1 |
| 20260509131828 | 8 | 315 | 4.8 | 9.7 | 0.00 | 0.00 | 0.00 | 93 | 1021.2 |
| 20260509130316 | 8 | 309 | 1.6 | 8.0 | 0.00 | 0.00 | 0.00 | 91 | 1021.2 |
| 20260509124823 | 8 | 324 | 4.8 | 6.4 | 0.00 | 0.00 | 0.00 | 91 | 1021.3 |
| 20260509123333 | 9 | 329 | 1.6 | 3.2 | 0.00 | 0.00 | 0.00 | 91 | 1021.3 |
| 20260509121819 | 9 | 327 | 1.6 | 6.4 | 0.00 | 0.00 | 0.00 | 91 | 1021.5 |
| 20260509120323 | 10 | 314 | 4.8 | 8.0 | 0.00 | 0.00 | 0.00 | 91 | 1021.5 |
| 20260509114831 | 10 | 317 | 3.2 | 9.7 | 0.00 | 0.00 | 0.00 | 91 | 1021.5 |
| 20260509113343 | 10 | 329 | 4.8 | 9.7 | 0.00 | 0.00 | 0.00 | 90 | 1021.6 |
| 20260509111827 | 10 | 313 | 6.4 | 11.3 | 0.00 | 0.00 | 0.00 | 91 | 1021.5 |
| 20260509110334 | 10 | 314 | 6.4 | 8.0 | 0.00 | 0.00 | 0.00 | 90 | 1021.6 |
| 20260509104858 | 10 | 323 | 4.8 | 8.0 | 0.00 | 0.00 | 0.00 | 89 | 1021.8 |
| 20260509103323 | 10 | 319 | 3.2 | 8.0 | 0.00 | 0.00 | 0.00 | 88 | 1022.0 |